createdAt,value
2022-10-01T00:01:29.219Z,11.80
2022-10-01T00:03:57.216Z,11.70
2022-10-01T00:06:25.144Z,11.80
2022-10-01T00:08:53.339Z,11.80
2022-10-01T00:11:24.915Z,11.70
2022-10-01T00:13:54.090Z,11.80
2022-10-01T00:16:24.188Z,11.80
2022-10-01T00:18:53.652Z,11.70
2022-10-01T00:21:24.318Z,11.80
2022-10-01T00:23:55.338Z,11.70
2022-10-01T00:26:27.335Z,11.70
2022-10-01T00:28:57.812Z,11.70
2022-10-01T00:31:26.582Z,11.70
2022-10-01T00:33:54.998Z,11.80
2022-10-01T00:36:23.131Z,11.70
2022-10-01T00:38:51.201Z,11.70
2022-10-01T00:41:19.844Z,11.70
2022-10-01T00:43:55.298Z,11.70
2022-10-01T00:46:26.010Z,11.70
2022-10-01T00:48:59.178Z,11.70
2022-10-01T00:51:29.660Z,12.20
2022-10-01T00:54:06.857Z,11.70
2022-10-01T00:56:34.866Z,11.70
2022-10-01T00:59:04.474Z,11.70
2022-10-01T01:01:33.057Z,11.70
2022-10-01T01:04:01.532Z,11.70
2022-10-01T01:06:29.876Z,11.70
2022-10-01T01:08:57.842Z,11.70
2022-10-01T01:11:34.299Z,11.70
2022-10-01T01:14:12.197Z,11.70
2022-10-01T01:16:49.175Z,11.70
2022-10-01T01:19:34.930Z,11.70
2022-10-01T01:22:06.830Z,11.80
2022-10-01T01:24:47.090Z,11.80
2022-10-01T01:27:33.546Z,11.90
2022-10-01T01:30:06.448Z,11.80
2022-10-01T01:32:46.463Z,11.80
2022-10-01T01:35:22.112Z,11.80
2022-10-01T01:37:56.178Z,11.80
2022-10-01T01:40:26.402Z,11.90
2022-10-01T01:42:56.081Z,11.90
2022-10-01T01:45:30.573Z,11.90
2022-10-01T01:48:02.311Z,11.90
2022-10-01T01:50:35.328Z,11.90
2022-10-01T01:53:03.263Z,11.90
2022-10-01T01:55:32.283Z,12.00
2022-10-01T01:58:00.533Z,12.00
2022-10-01T02:00:30.066Z,12.00
2022-10-01T02:02:59.201Z,12.00
2022-10-01T02:05:30.115Z,12.30
2022-10-01T02:08:26.463Z,12.00
2022-10-01T02:11:19.613Z,12.00
2022-10-01T02:14:00.108Z,12.10
2022-10-01T02:16:34.585Z,12.10
2022-10-01T02:19:07.057Z,12.10
2022-10-01T02:21:38.020Z,12.20
2022-10-01T02:24:14.333Z,12.10
2022-10-01T02:26:44.306Z,12.20
2022-10-01T02:29:16.645Z,12.20
2022-10-01T02:31:48.758Z,12.20
2022-10-01T02:34:20.486Z,12.20
2022-10-01T02:36:50.487Z,12.20
2022-10-01T02:39:21.562Z,12.30
2022-10-01T02:41:52.750Z,12.30
2022-10-01T02:44:25.019Z,12.40
2022-10-01T02:47:01.074Z,12.30
2022-10-01T02:49:31.032Z,12.40
2022-10-01T02:52:05.974Z,12.40
2022-10-01T02:54:39.475Z,12.40
2022-10-01T02:57:24.483Z,12.40
2022-10-01T02:59:52.699Z,12.50
2022-10-01T03:02:22.799Z,12.40
2022-10-01T03:04:50.747Z,12.60
2022-10-01T03:07:18.665Z,12.50
2022-10-01T03:09:46.657Z,12.50
2022-10-01T03:12:14.532Z,12.60
2022-10-01T03:14:42.383Z,12.50
2022-10-01T03:17:10.564Z,12.50
2022-10-01T03:19:40.391Z,13.10
2022-10-01T03:22:08.758Z,13.10
2022-10-01T03:24:37.309Z,12.60
2022-10-01T03:27:05.355Z,12.60
2022-10-01T03:29:33.247Z,12.60
2022-10-01T03:32:01.334Z,12.60
2022-10-01T03:34:29.567Z,12.70
2022-10-01T03:36:58.766Z,12.70
2022-10-01T03:39:26.846Z,12.70
2022-10-01T03:41:54.701Z,12.70
2022-10-01T03:44:22.746Z,12.70
2022-10-01T03:46:50.749Z,12.70
2022-10-01T03:49:18.731Z,12.80
2022-10-01T03:51:46.683Z,12.80
2022-10-01T03:54:16.061Z,12.90
2022-10-01T03:56:44.035Z,12.80
2022-10-01T03:59:12.271Z,12.80
2022-10-01T04:01:40.518Z,12.80
2022-10-01T04:04:08.698Z,12.90
2022-10-01T04:06:36.635Z,12.90
2022-10-01T04:09:04.769Z,12.90
2022-10-01T04:11:34.317Z,12.90
2022-10-01T04:14:02.523Z,13.00
2022-10-01T04:16:30.602Z,12.90
2022-10-01T04:18:58.510Z,12.90
2022-10-01T04:21:26.726Z,13.00
2022-10-01T04:23:54.606Z,13.00
2022-10-01T04:26:22.544Z,13.30
2022-10-01T04:28:51.959Z,13.00
2022-10-01T04:31:25.958Z,13.00
2022-10-01T04:33:55.027Z,13.00
2022-10-01T04:36:23.847Z,13.00
2022-10-01T04:38:54.672Z,13.00
2022-10-01T04:41:25.464Z,13.00
2022-10-01T04:43:54.703Z,13.10
2022-10-01T04:46:22.710Z,13.20
2022-10-01T04:48:50.682Z,13.00
2022-10-01T04:51:18.710Z,13.00
2022-10-01T04:53:46.739Z,13.00
2022-10-01T04:56:14.625Z,12.90
2022-10-01T04:58:42.517Z,13.00
2022-10-01T05:01:11.861Z,12.90
2022-10-01T05:03:40.031Z,12.90
2022-10-01T05:06:07.919Z,12.90
2022-10-01T05:08:36.783Z,12.80
2022-10-01T05:11:04.826Z,12.80
2022-10-01T05:13:32.711Z,12.70
2022-10-01T05:16:03.148Z,12.70
2022-10-01T05:18:32.527Z,12.70
2022-10-01T05:21:00.420Z,12.70
2022-10-01T05:23:28.317Z,12.70
2022-10-01T05:25:56.211Z,12.70
2022-10-01T05:28:24.105Z,12.80
2022-10-01T05:30:52.196Z,12.70
2022-10-01T05:33:20.315Z,12.70
2022-10-01T05:35:49.550Z,12.60
2022-10-01T05:38:17.415Z,12.60
2022-10-01T05:40:47.346Z,12.60
2022-10-01T05:43:16.344Z,12.60
2022-10-01T05:45:44.241Z,12.60
2022-10-01T05:48:12.858Z,12.60
2022-10-01T05:50:42.483Z,12.60
2022-10-01T05:53:14.010Z,12.60
2022-10-01T05:55:42.028Z,12.60
2022-10-01T05:58:12.197Z,12.60
2022-10-01T06:00:41.575Z,12.50
2022-10-01T06:03:12.725Z,13.40
2022-10-01T06:05:40.917Z,12.50
2022-10-01T06:08:10.547Z,12.50
2022-10-01T06:10:40.237Z,12.50
2022-10-01T06:13:08.862Z,13.00
2022-10-01T06:15:39.119Z,12.60
2022-10-01T06:18:07.975Z,12.60
2022-10-01T06:20:36.561Z,12.60
2022-10-01T06:23:05.877Z,12.60
2022-10-01T06:25:35.142Z,12.60
2022-10-01T06:28:05.939Z,12.60
2022-10-01T06:30:36.303Z,12.60
2022-10-01T06:33:05.649Z,12.60
2022-10-01T06:35:34.402Z,12.60
2022-10-01T06:38:02.720Z,12.60
2022-10-01T06:40:31.191Z,12.60
2022-10-01T06:42:59.485Z,12.60
2022-10-01T06:45:30.137Z,12.60
2022-10-01T06:47:59.748Z,12.60
2022-10-01T06:50:27.631Z,12.70
2022-10-01T06:52:55.778Z,12.90
2022-10-01T06:55:26.339Z,13.00
2022-10-01T06:57:56.756Z,13.80
2022-10-01T07:00:25.029Z,13.20
2022-10-01T07:02:55.611Z,13.80
2022-10-01T07:05:24.178Z,13.90
2022-10-01T07:07:53.538Z,13.40
2022-10-01T07:10:23.189Z,13.50
2022-10-01T07:12:51.482Z,13.60
2022-10-01T07:15:22.653Z,13.70
2022-10-01T07:17:51.670Z,13.80
2022-10-01T07:20:22.030Z,13.90
2022-10-01T07:22:56.958Z,14.00
2022-10-01T07:25:25.148Z,14.10
2022-10-01T07:27:56.749Z,14.30
2022-10-01T07:30:25.015Z,14.30
2022-10-01T07:32:53.443Z,14.40
2022-10-01T07:35:23.078Z,14.50
2022-10-01T07:37:51.998Z,14.60
2022-10-01T07:40:19.975Z,14.50
2022-10-01T07:42:55.358Z,14.70
2022-10-01T07:45:24.167Z,14.70
2022-10-01T07:47:55.934Z,14.70
2022-10-01T07:50:25.990Z,14.70
2022-10-01T07:52:55.353Z,14.70
2022-10-01T07:55:24.258Z,14.60
2022-10-01T07:57:53.207Z,14.70
2022-10-01T08:00:22.418Z,15.50
2022-10-01T08:02:51.408Z,14.90
2022-10-01T08:05:20.419Z,15.10
2022-10-01T08:07:50.798Z,15.00
2022-10-01T08:10:20.563Z,15.00
2022-10-01T08:12:48.440Z,15.10
2022-10-01T08:15:18.171Z,15.20
2022-10-01T08:17:46.369Z,15.90
2022-10-01T08:20:15.812Z,15.50
2022-10-01T08:22:43.685Z,15.40
2022-10-01T08:25:13.008Z,15.40
2022-10-01T08:27:40.950Z,15.50
2022-10-01T08:30:10.031Z,15.50
2022-10-01T08:32:38.018Z,15.50
2022-10-01T08:35:06.899Z,15.50
2022-10-01T08:37:34.956Z,15.60
2022-10-01T08:40:03.166Z,15.60
2022-10-01T08:42:48.764Z,15.70
2022-10-01T08:45:22.733Z,16.40
2022-10-01T08:47:57.193Z,15.70
2022-10-01T08:50:37.854Z,15.80
2022-10-01T08:53:08.423Z,15.70
2022-10-01T08:55:38.638Z,15.80
2022-10-01T08:58:11.477Z,15.90
2022-10-01T09:00:43.806Z,16.10
2022-10-01T09:03:13.317Z,16.00
2022-10-01T09:05:53.571Z,16.10
2022-10-01T09:08:43.789Z,16.10
2022-10-01T09:11:22.124Z,16.10
2022-10-01T09:14:08.512Z,16.10
2022-10-01T09:16:41.134Z,16.20
2022-10-01T09:19:25.526Z,16.20
2022-10-01T09:21:58.274Z,16.10
2022-10-01T09:24:40.817Z,16.20
2022-10-01T09:27:12.300Z,16.30
2022-10-01T09:29:46.727Z,16.20
2022-10-01T09:32:17.793Z,16.30
2022-10-01T09:34:46.105Z,16.30
2022-10-01T09:37:24.430Z,16.30
2022-10-01T09:40:04.550Z,16.20
2022-10-01T09:42:32.847Z,16.20
2022-10-01T09:45:02.820Z,16.20
2022-10-01T09:47:34.234Z,16.10
2022-10-01T09:50:06.434Z,16.10
2022-10-01T09:52:36.676Z,16.00
2022-10-01T09:55:10.254Z,16.10
2022-10-01T09:57:42.175Z,16.20
2022-10-01T10:00:17.969Z,16.20
2022-10-01T10:02:49.379Z,16.20
2022-10-01T10:05:19.443Z,16.20
2022-10-01T10:07:50.521Z,16.40
2022-10-01T10:10:25.251Z,16.30
2022-10-01T10:12:57.520Z,16.30
2022-10-01T10:15:27.283Z,16.40
2022-10-01T10:17:56.866Z,16.50
2022-10-01T10:20:29.873Z,16.60
2022-10-01T10:23:08.444Z,16.60
2022-10-01T10:25:36.453Z,16.70
2022-10-01T10:28:05.113Z,16.70
2022-10-01T10:30:37.344Z,16.70
2022-10-01T10:33:08.148Z,16.90
2022-10-01T10:35:37.066Z,17.00
2022-10-01T10:38:05.353Z,17.20
2022-10-01T10:40:42.034Z,17.30
2022-10-01T10:43:19.226Z,17.30
2022-10-01T10:45:49.464Z,17.20
2022-10-01T10:48:19.815Z,17.10
2022-10-01T10:50:48.181Z,17.00
2022-10-01T10:53:24.411Z,17.20
2022-10-01T10:55:58.453Z,16.90
2022-10-01T10:58:28.510Z,16.80
2022-10-01T11:01:02.113Z,16.80
2022-10-01T11:03:33.050Z,16.80
2022-10-01T11:06:09.970Z,16.90
2022-10-01T11:08:38.912Z,17.20
2022-10-01T11:11:18.238Z,17.50
2022-10-01T11:14:07.862Z,17.70
2022-10-01T11:16:47.748Z,17.80
2022-10-01T11:19:42.398Z,17.90
2022-10-01T11:22:27.276Z,17.80
2022-10-01T11:25:18.129Z,18.00
2022-10-01T11:27:54.249Z,18.00
2022-10-01T11:30:24.901Z,17.70
2022-10-01T11:33:05.885Z,17.70
2022-10-01T11:35:45.101Z,17.60
2022-10-01T11:38:43.017Z,17.60
2022-10-01T11:41:19.825Z,17.50
2022-10-01T11:43:53.082Z,17.50
2022-10-01T11:46:34.562Z,17.70
2022-10-01T11:49:30.142Z,17.70
2022-10-01T11:52:09.024Z,17.80
2022-10-01T11:54:44.201Z,17.80
2022-10-01T11:57:34.427Z,17.70
2022-10-01T12:00:08.204Z,17.60
2022-10-01T12:02:44.053Z,17.70
2022-10-01T12:05:18.692Z,18.10
2022-10-01T12:07:52.432Z,18.00
2022-10-01T12:10:33.359Z,18.10
2022-10-01T12:13:07.808Z,17.70
2022-10-01T12:15:42.788Z,17.80
2022-10-01T12:18:17.438Z,17.70
2022-10-01T12:20:50.676Z,18.20
2022-10-01T12:23:23.223Z,17.80
2022-10-01T12:26:01.551Z,18.00
2022-10-01T12:28:35.899Z,18.10
2022-10-01T12:31:13.608Z,18.10
2022-10-01T12:34:06.589Z,17.90
2022-10-01T12:36:45.587Z,17.70
2022-10-01T12:39:31.962Z,17.80
2022-10-01T12:42:14.505Z,18.10
2022-10-01T12:44:54.559Z,18.00
2022-10-01T12:47:37.931Z,18.10
2022-10-01T12:50:22.489Z,18.20
2022-10-01T12:53:06.754Z,18.50
2022-10-01T12:55:49.813Z,18.30
2022-10-01T12:58:30.897Z,18.10
2022-10-01T13:01:04.210Z,18.20
2022-10-01T13:03:53.516Z,18.20
2022-10-01T13:06:34.478Z,18.10
2022-10-01T13:09:15.291Z,18.20
2022-10-01T13:12:01.412Z,18.00
2022-10-01T13:14:30.268Z,18.00
2022-10-01T13:17:05.511Z,18.30
2022-10-01T13:19:40.726Z,18.10
2022-10-01T13:22:17.319Z,18.30
2022-10-01T13:24:51.455Z,18.20
2022-10-01T13:27:27.037Z,18.30
2022-10-01T13:30:00.026Z,18.10
2022-10-01T13:32:34.022Z,17.90
2022-10-01T13:35:03.822Z,17.90
2022-10-01T13:37:40.845Z,18.10
2022-10-01T13:40:26.015Z,18.60
2022-10-01T13:42:56.095Z,18.80
2022-10-01T13:45:28.741Z,18.80
2022-10-01T13:48:09.290Z,18.80
2022-10-01T13:50:37.757Z,18.80
2022-10-01T13:53:10.324Z,18.90
2022-10-01T13:55:43.333Z,18.90
2022-10-01T13:58:25.069Z,18.90
2022-10-01T14:00:55.545Z,19.20
2022-10-01T14:03:44.412Z,19.10
2022-10-01T14:06:19.254Z,19.10
2022-10-01T14:08:52.164Z,18.60
2022-10-01T14:11:44.538Z,18.70
2022-10-01T14:14:31.711Z,18.70
2022-10-01T14:17:01.586Z,18.50
2022-10-01T14:19:29.632Z,18.40
2022-10-01T14:22:19.727Z,18.20
2022-10-01T14:25:13.866Z,18.40
2022-10-01T14:27:48.147Z,18.60
2022-10-01T14:30:19.370Z,18.80
2022-10-01T14:33:10.287Z,18.90
2022-10-01T14:35:41.254Z,19.20
2022-10-01T14:38:18.949Z,19.20
2022-10-01T14:40:48.432Z,19.10
2022-10-01T14:43:19.865Z,19.50
2022-10-01T14:45:56.565Z,19.50
2022-10-01T14:48:25.245Z,19.50
2022-10-01T14:50:54.624Z,19.60
2022-10-01T14:53:25.079Z,19.60
2022-10-01T14:55:55.986Z,19.50
2022-10-01T14:58:30.850Z,19.60
2022-10-01T15:00:59.847Z,19.60
2022-10-01T15:03:27.862Z,19.70
2022-10-01T15:06:04.627Z,19.70
2022-10-01T15:08:39.947Z,19.50
2022-10-01T15:11:12.856Z,19.50
2022-10-01T15:13:44.202Z,19.50
2022-10-01T15:16:14.993Z,19.40
2022-10-01T15:18:47.077Z,18.90
2022-10-01T15:21:20.702Z,19.00
2022-10-01T15:23:49.698Z,18.90
2022-10-01T15:26:22.181Z,18.80
2022-10-01T15:29:01.817Z,18.60
2022-10-01T15:31:30.024Z,18.60
2022-10-01T15:33:58.190Z,18.40
2022-10-01T15:36:26.099Z,18.40
2022-10-01T15:38:56.206Z,18.50
2022-10-01T15:41:31.848Z,18.50
2022-10-01T15:44:06.378Z,18.50
2022-10-01T15:46:36.138Z,18.40
2022-10-01T15:49:21.326Z,18.30
2022-10-01T15:52:07.550Z,18.30
2022-10-01T15:54:36.473Z,18.20
2022-10-01T15:57:06.160Z,18.20
2022-10-01T15:59:37.202Z,18.10
2022-10-01T16:02:11.429Z,18.10
2022-10-01T16:04:39.490Z,18.00
2022-10-01T16:07:07.427Z,18.30
2022-10-01T16:09:35.380Z,18.10
2022-10-01T16:12:06.421Z,18.10
2022-10-01T16:14:39.372Z,18.00
2022-10-01T16:17:29.549Z,17.70
2022-10-01T16:19:59.652Z,17.60
2022-10-01T16:22:31.847Z,17.60
2022-10-01T16:25:01.157Z,17.60
2022-10-01T16:27:31.354Z,17.70
2022-10-01T16:30:05.734Z,17.70
2022-10-01T16:32:34.336Z,17.70
2022-10-01T16:35:18.134Z,17.70
2022-10-01T16:37:47.576Z,17.50
2022-10-01T16:40:16.506Z,17.80
2022-10-01T16:42:45.180Z,18.00
2022-10-01T16:45:18.076Z,17.40
2022-10-01T16:47:47.206Z,17.30
2022-10-01T16:50:17.530Z,17.20
2022-10-01T16:52:45.609Z,17.20
2022-10-01T16:55:18.614Z,17.10
2022-10-01T16:57:46.681Z,17.00
2022-10-01T17:00:17.554Z,16.90
2022-10-01T17:02:45.783Z,16.90
2022-10-01T17:05:18.519Z,16.80
2022-10-01T17:07:47.651Z,16.70
2022-10-01T17:10:16.783Z,16.70
2022-10-01T17:12:47.705Z,16.50
2022-10-01T17:15:19.355Z,16.50
2022-10-01T17:17:47.883Z,16.40
2022-10-01T17:20:16.504Z,16.40
2022-10-01T17:22:44.478Z,16.30
2022-10-01T17:25:15.795Z,17.60
2022-10-01T17:27:43.938Z,16.30
2022-10-01T17:30:12.510Z,16.20
2022-10-01T17:32:43.106Z,16.20
2022-10-01T17:35:13.003Z,16.10
2022-10-01T17:37:41.591Z,16.30
2022-10-01T17:40:11.324Z,15.90
2022-10-01T17:42:39.554Z,15.90
2022-10-01T17:45:10.133Z,15.90
2022-10-01T17:47:38.141Z,15.90
2022-10-01T17:50:08.323Z,15.90
2022-10-01T17:52:36.272Z,15.80
2022-10-01T17:55:04.342Z,15.80
2022-10-01T17:57:32.746Z,15.70
2022-10-01T18:00:00.742Z,15.70
2022-10-01T18:02:44.171Z,15.60
2022-10-01T18:05:14.932Z,15.60
2022-10-01T18:07:43.388Z,15.50
2022-10-01T18:10:13.851Z,15.50
2022-10-01T18:12:41.953Z,15.50
2022-10-01T18:15:10.787Z,15.40
2022-10-01T18:17:43.420Z,15.40
2022-10-01T18:20:20.652Z,15.30
2022-10-01T18:22:49.221Z,15.20
2022-10-01T18:25:19.468Z,15.50
2022-10-01T18:27:50.142Z,15.10
2022-10-01T18:30:20.060Z,15.20
2022-10-01T18:32:51.803Z,15.00
2022-10-01T18:35:28.747Z,15.00
2022-10-01T18:38:00.590Z,14.90
2022-10-01T18:40:30.799Z,15.30
2022-10-01T18:43:03.261Z,14.80
2022-10-01T18:45:57.586Z,14.80
2022-10-01T18:48:47.440Z,14.90
2022-10-01T18:51:24.522Z,14.90
2022-10-01T18:54:14.728Z,14.80
2022-10-01T18:56:50.100Z,14.80
2022-10-01T18:59:37.846Z,14.70
2022-10-01T19:02:39.077Z,14.60
2022-10-01T19:05:39.488Z,14.60
2022-10-01T19:08:18.920Z,14.50
2022-10-01T19:10:56.149Z,14.50
2022-10-01T19:13:35.414Z,14.40
2022-10-01T19:16:10.842Z,14.50
2022-10-01T19:18:56.818Z,14.40
2022-10-01T19:21:33.324Z,14.30
2022-10-01T19:24:18.757Z,14.30
2022-10-01T19:26:57.381Z,14.20
2022-10-01T19:29:40.166Z,14.20
2022-10-01T19:32:13.713Z,14.10
2022-10-01T19:34:47.408Z,14.60
2022-10-01T19:37:28.918Z,14.00
2022-10-01T19:40:04.050Z,14.00
2022-10-01T19:42:38.056Z,14.00
2022-10-01T19:45:17.559Z,14.00
2022-10-01T19:47:51.389Z,14.70
2022-10-01T19:50:24.142Z,13.90
2022-10-01T19:52:55.070Z,13.90
2022-10-01T19:55:26.078Z,13.90
2022-10-01T19:57:54.081Z,13.90
2022-10-01T20:00:24.247Z,13.90
2022-10-01T20:02:57.903Z,13.80
2022-10-01T20:05:30.033Z,13.70
2022-10-01T20:08:04.021Z,13.80
2022-10-01T20:10:39.430Z,13.70
2022-10-01T20:13:28.236Z,13.60
2022-10-01T20:16:06.149Z,13.60
2022-10-01T20:18:42.420Z,13.60
2022-10-01T20:21:27.419Z,13.60
2022-10-01T20:24:02.319Z,13.50
2022-10-01T20:26:40.903Z,13.50
2022-10-01T20:29:21.515Z,13.50
2022-10-01T20:31:58.441Z,13.40
2022-10-01T20:34:33.230Z,13.40
2022-10-01T20:37:16.585Z,13.40
2022-10-01T20:39:50.184Z,14.30
2022-10-01T20:42:25.179Z,13.30
2022-10-01T20:44:54.836Z,13.30
2022-10-01T20:47:30.579Z,13.30
2022-10-01T20:50:09.461Z,13.20
2022-10-01T20:52:46.006Z,13.20
2022-10-01T20:55:18.670Z,13.10
2022-10-01T20:57:51.885Z,13.10
2022-10-01T21:00:23.527Z,13.10
2022-10-01T21:02:56.956Z,13.10
2022-10-01T21:05:30.006Z,13.10
2022-10-01T21:08:02.369Z,13.10
2022-10-01T21:10:38.853Z,13.10
2022-10-01T21:13:16.020Z,13.10
2022-10-01T21:15:55.757Z,13.10
2022-10-01T21:18:37.956Z,13.30
2022-10-01T21:21:17.795Z,13.10
2022-10-01T21:23:57.460Z,13.20
2022-10-01T21:26:37.618Z,13.20
2022-10-01T21:29:24.329Z,13.20
2022-10-01T21:32:06.128Z,13.20
2022-10-01T21:34:44.158Z,13.30
2022-10-01T21:37:17.243Z,13.30
2022-10-01T21:40:02.008Z,13.40
2022-10-01T21:42:41.362Z,13.50
2022-10-01T21:45:26.157Z,13.50
2022-10-01T21:48:22.260Z,13.50
2022-10-01T21:50:57.543Z,13.50
2022-10-01T21:53:53.317Z,13.50
2022-10-01T21:56:45.417Z,13.40
2022-10-01T21:59:29.271Z,13.40
2022-10-01T22:02:07.318Z,13.40
2022-10-01T22:04:40.992Z,13.50
2022-10-01T22:07:17.608Z,13.40
2022-10-01T22:09:57.347Z,13.30
2022-10-01T22:12:28.754Z,13.30
2022-10-01T22:14:58.874Z,13.20
2022-10-01T22:17:32.815Z,13.10
2022-10-01T22:20:05.341Z,13.10
2022-10-01T22:22:38.052Z,13.10
2022-10-01T22:25:08.119Z,13.00
2022-10-01T22:27:42.810Z,13.00
2022-10-01T22:30:15.389Z,13.30
2022-10-01T22:32:51.550Z,13.00
2022-10-01T22:35:24.992Z,12.90
2022-10-01T22:37:57.480Z,12.90
2022-10-01T22:40:26.821Z,12.90
2022-10-01T22:43:01.998Z,12.90
2022-10-01T22:45:42.693Z,12.80
2022-10-01T22:48:26.716Z,12.80
2022-10-01T22:51:08.957Z,12.80
2022-10-01T22:53:52.800Z,12.80
2022-10-01T22:56:27.910Z,12.80
2022-10-01T22:59:08.187Z,12.80
2022-10-01T23:01:47.277Z,12.70
2022-10-01T23:04:36.470Z,12.80
2022-10-01T23:07:25.641Z,12.70
2022-10-01T23:10:01.874Z,12.70
2022-10-01T23:12:39.145Z,12.80
2022-10-01T23:15:18.161Z,12.80
2022-10-01T23:17:54.029Z,12.80
2022-10-01T23:20:30.772Z,12.80
2022-10-01T23:23:16.888Z,12.80
2022-10-01T23:26:16.700Z,12.80
2022-10-01T23:28:55.597Z,12.80
2022-10-01T23:31:33.581Z,12.80
2022-10-01T23:34:16.545Z,12.80
2022-10-01T23:36:50.003Z,12.90
2022-10-01T23:39:35.906Z,12.80
2022-10-01T23:42:12.234Z,12.80
2022-10-01T23:44:47.761Z,12.90
2022-10-01T23:47:25.125Z,12.80
2022-10-01T23:49:55.875Z,12.90
2022-10-01T23:52:33.466Z,13.10
2022-10-01T23:55:19.672Z,12.90
2022-10-01T23:57:49.997Z,12.90
